Time;durP1;ratioP1;P1;durP2;ratioP2;P2;SDS_P1;SDS_P2;PMS_P1;PMS_P2;Temp;Humidity;BMP_temperature;BMP_pressure;BME280_temperature;BME280_humidity;BME280_pressure;Samples;Min_cycle;Max_cycle;Signal;HPM_P1;HPM_P2
2022/04/26 03:38:43;;;;;;;7.13;6.57;;;12.60;96.90;;;;;;6133623;29;20476;-62
2022/04/26 03:41:47;;;;;;;8.60;7.10;;;12.70;97.00;;;;;;6132967;29;20478;-62
2022/04/26 03:44:50;;;;;;;7.30;6.60;;;12.50;97.60;;;;;;6133000;29;20486;-62
2022/04/26 03:47:53;;;;;;;8.83;7.20;;;12.50;97.40;;;;;;6132813;29;20483;-63
2022/04/26 03:50:57;;;;;;;8.17;7.47;;;12.50;97.50;;;;;;6132665;29;20472;-62
2022/04/26 03:54:00;;;;;;;8.63;7.77;;;12.60;97.60;;;;;;6124287;29;20480;-62
2022/04/26 03:57:09;;;;;;;8.40;7.57;;;12.60;97.50;;;;;;6133111;29;20471;-62
2022/04/26 04:00:13;;;;;;;7.60;6.90;;;12.60;97.70;;;;;;6132327;29;20475;-62
2022/04/26 04:03:21;;;;;;;9.07;8.20;;;12.50;97.80;;;;;;6132867;29;20487;-62
2022/04/26 04:06:26;;;;;;;10.00;9.00;;;12.50;97.60;;;;;;6132707;29;20815;-62
2022/04/26 04:09:29;;;;;;;8.67;7.90;;;12.40;97.80;;;;;;6132541;29;20472;-62
2022/04/26 04:12:32;;;;;;;9.30;8.43;;;12.30;97.80;;;;;;6131035;29;20472;-63
2022/04/26 04:15:36;;;;;;;10.57;9.57;;;12.20;98.00;;;;;;6132536;29;20475;-63
2022/04/26 04:22:01;;;;;;;9.60;8.60;;;12.20;98.30;;;;;;6132438;29;20499;-63
2022/04/26 04:25:05;;;;;;;9.63;8.63;;;12.20;98.20;;;;;;6132255;29;20767;-63
2022/04/26 04:28:08;;;;;;;9.67;8.73;;;12.30;98.20;;;;;;6131934;29;20482;-62
2022/04/26 04:31:11;;;;;;;10.13;9.23;;;12.30;98.10;;;;;;6131948;29;20805;-63
2022/04/26 04:34:14;;;;;;;10.23;9.33;;;12.30;98.30;;;;;;6131587;29;20502;-63
2022/04/26 04:37:19;;;;;;;10.40;9.50;;;12.30;98.10;;;;;;6132018;29;20487;-63
2022/04/26 04:40:22;;;;;;;10.07;9.07;;;12.30;98.10;;;;;;6131876;29;20526;-64
2022/04/26 04:43:25;;;;;;;10.37;9.33;;;12.30;98.10;;;;;;6131941;29;20488;-63
2022/04/26 04:46:28;;;;;;;9.70;8.70;;;12.40;97.90;;;;;;6131613;29;20472;-63
2022/04/26 04:49:32;;;;;;;9.73;8.83;;;12.40;97.80;;;;;;6131671;29;20813;-63
2022/04/26 04:52:37;;;;;;;10.67;9.67;;;12.50;97.70;;;;;;6131262;29;20791;-63
2022/04/26 04:55:40;;;;;;;10.27;9.27;;;12.50;97.70;;;;;;6131491;29;20494;-62
2022/04/26 04:58:44;;;;;;;9.90;8.97;;;12.60;97.70;;;;;;6127196;29;20468;-62
2022/04/26 05:01:47;;;;;;;11.10;10.07;;;12.70;97.60;;;;;;6131174;29;20566;-63
2022/04/26 05:04:50;;;;;;;9.70;8.10;;;12.80;97.20;;;;;;6131278;29;20460;-63
2022/04/26 05:07:56;;;;;;;10.67;9.67;;;12.90;97.20;;;;;;6130801;29;20448;-63
2022/04/26 05:10:59;;;;;;;10.50;9.40;;;12.90;96.80;;;;;;6131403;29;20436;-63
2022/04/26 05:14:02;;;;;;;10.03;9.13;;;12.80;97.00;;;;;;6130916;29;20463;-62
2022/04/26 05:17:05;;;;;;;10.60;9.20;;;12.90;96.90;;;;;;6130926;29;20448;-62
2022/04/26 05:20:09;;;;;;;9.63;8.73;;;12.80;97.00;;;;;;6131166;29;21106;-63
2022/04/26 05:26:35;;;;;;;11.73;8.63;;;12.70;97.00;;;;;;6130823;29;20933;-63
2022/04/26 05:29:38;;;;;;;10.47;9.53;;;12.80;97.10;;;;;;6131455;29;20480;-62
2022/04/26 05:32:41;;;;;;;10.17;9.17;;;12.90;96.90;;;;;;6130911;29;20479;-62
2022/04/26 05:35:44;;;;;;;10.10;9.00;;;12.90;97.10;;;;;;6131259;29;20490;-62
2022/04/26 05:38:48;;;;;;;9.70;8.80;;;13.00;96.80;;;;;;6136312;29;20483;-62
2022/04/26 05:41:51;;;;;;;11.30;10.30;;;13.00;96.60;;;;;;6136448;29;20486;-62
2022/04/26 05:44:54;;;;;;;10.63;9.67;;;13.00;96.60;;;;;;6133771;29;20511;-62
2022/04/26 05:47:58;;;;;;;10.07;9.07;;;13.10;96.50;;;;;;6135995;29;20812;-62
2022/04/26 05:51:01;;;;;;;11.23;10.00;;;13.10;96.50;;;;;;6136721;29;20486;-63
2022/04/26 05:54:05;;;;;;;10.50;9.40;;;13.20;96.50;;;;;;6137166;29;20485;-63
2022/04/26 05:57:08;;;;;;;9.90;9.00;;;13.30;96.30;;;;;;6138980;29;20475;-63
2022/04/26 06:00:14;;;;;;;8.83;8.03;;;13.30;96.10;;;;;;6134819;29;20483;-65
2022/04/26 06:03:17;;;;;;;9.70;8.70;;;13.30;96.10;;;;;;6128826;29;20487;-63
2022/04/26 06:06:21;;;;;;;9.83;8.80;;;13.40;95.80;;;;;;6132906;29;20482;-63
2022/04/26 06:09:25;;;;;;;11.27;10.13;;;13.40;95.90;;;;;;6135151;29;20479;-63
2022/04/26 06:12:28;;;;;;;10.23;9.23;;;13.40;95.50;;;;;;6138485;29;20472;-65
2022/04/26 06:15:32;;;;;;;10.70;9.60;;;13.50;95.50;;;;;;6135684;29;20480;-65
2022/04/26 06:18:35;;;;;;;10.20;9.13;;;13.50;95.30;;;;;;6133304;29;20482;-65
2022/04/26 06:21:38;;;;;;;13.43;10.07;;;13.60;95.00;;;;;;6132976;29;20476;-65
2022/04/26 06:24:42;;;;;;;10.00;9.10;;;13.60;94.90;;;;;;6133265;29;20483;-63
2022/04/26 06:27:47;;;;;;;9.17;8.40;;;13.70;95.10;;;;;;6133716;29;21004;-66
2022/04/26 06:30:50;;;;;;;11.13;9.73;;;13.70;94.50;;;;;;6133243;29;20472;-65
2022/04/26 06:33:53;;;;;;;8.90;8.07;;;13.70;94.00;;;;;;6134563;29;20531;-63
2022/04/26 06:36:57;;;;;;;8.90;8.10;;;13.80;94.40;;;;;;6132817;29;20471;-63
2022/04/26 06:40:01;;;;;;;10.23;9.30;;;13.80;94.40;;;;;;6131923;29;20476;-63
2022/04/26 06:43:04;;;;;;;13.63;8.67;;;13.90;93.70;;;;;;6130963;29;20506;-63
2022/04/26 06:46:07;;;;;;;9.13;8.33;;;13.70;93.80;;;;;;6130429;29;20782;-63
2022/04/26 06:49:11;;;;;;;10.00;8.70;;;13.80;94.30;;;;;;6130429;29;20491;-63
2022/04/26 06:52:15;;;;;;;9.73;8.80;;;13.60;94.00;;;;;;6129844;29;20482;-63
2022/04/26 06:55:19;;;;;;;9.13;8.33;;;13.60;94.30;;;;;;6129630;29;20491;-65
2022/04/26 06:58:22;;;;;;;11.17;9.80;;;13.70;94.40;;;;;;6129336;29;20960;-63
2022/04/26 07:01:25;;;;;;;10.70;9.60;;;13.80;93.90;;;;;;6129310;29;20476;-65
2022/04/26 07:04:44;;;;;;;10.40;9.40;;;13.80;93.60;;;;;;6129286;29;20988;-65
2022/04/26 07:07:49;;;;;;;9.67;8.77;;;14.00;94.00;;;;;;6119878;29;20475;-66
2022/04/26 07:10:54;;;;;;;12.50;10.30;;;14.30;93.10;;;;;;6129021;29;20460;-64
2022/04/26 07:13:58;;;;;;;10.30;9.20;;;14.40;92.80;;;;;;6129473;29;20795;-63
2022/04/26 07:17:02;;;;;;;12.40;8.97;;;14.70;92.50;;;;;;6130015;29;20473;-63
2022/04/26 07:20:06;;;;;;;9.80;8.90;;;14.90;92.20;;;;;;6129439;29;20927;-63
2022/04/26 07:23:09;;;;;;;10.53;9.40;;;15.10;91.90;;;;;;6129858;29;20483;-62
2022/04/26 07:26:13;;;;;;;9.83;8.90;;;15.40;91.20;;;;;;6129972;29;20463;-62
2022/04/26 07:29:17;;;;;;;13.33;9.97;;;15.60;90.70;;;;;;6129271;29;20467;-62
2022/04/26 07:34:20;;;;;;;10.17;9.27;;;15.90;90.10;;;;;;6128878;29;20538;-63
2022/04/26 07:35:42;;;;;;;10.83;9.70;;;15.80;90.60;;;;;;6128811;29;20472;-62
2022/04/26 07:38:45;;;;;;;9.40;8.60;;;16.20;88.80;;;;;;6120921;29;20497;-65
2022/04/26 07:41:50;;;;;;;12.20;8.17;;;16.70;87.90;;;;;;6115857;29;20483;-64
2022/04/26 07:44:53;;;;;;;10.33;9.33;;;17.10;85.60;;;;;;6120126;29;20464;-65
2022/04/26 07:47:57;;;;;;;11.43;10.23;;;17.20;84.30;;;;;;6120884;29;20475;-65
2022/04/26 07:51:00;;;;;;;10.43;9.37;;;17.10;83.90;;;;;;6126661;29;20482;-62
2022/04/26 07:54:04;;;;;;;10.83;9.73;;;16.60;84.80;;;;;;6120952;29;21030;-62
2022/04/26 07:57:09;;;;;;;12.63;9.67;;;16.60;85.70;;;;;;6111310;29;20940;-63
2022/04/26 08:00:12;;;;;;;10.13;9.20;;;16.60;85.60;;;;;;6120853;29;20472;-63
2022/04/26 08:03:16;;;;;;;9.93;9.03;;;17.00;85.70;;;;;;6132782;29;20490;-62
2022/04/26 08:06:20;;;;;;;10.37;9.00;;;17.50;83.20;;;;;;6132461;29;20479;-63
2022/04/26 08:09:23;;;;;;;11.53;10.43;;;17.40;80.10;;;;;;6127725;29;20476;-62
2022/04/26 08:12:27;;;;;;;9.50;8.60;;;17.10;80.70;;;;;;6126236;29;20484;-63
2022/04/26 08:15:31;;;;;;;10.57;9.43;;;17.00;82.40;;;;;;6110181;29;20567;-68
2022/04/26 08:18:34;;;;;;;10.10;8.70;;;16.90;81.90;;;;;;6111060;29;20504;-65
2022/04/26 08:21:37;;;;;;;14.23;10.30;;;16.90;81.90;;;;;;6108889;29;20480;-63
2022/04/26 08:28:02;;;;;;;11.67;10.57;;;17.50;80.20;;;;;;6108245;29;20484;-64
2022/04/26 08:31:06;;;;;;;10.67;9.67;;;17.50;80.10;;;;;;6108874;29;20488;-64
2022/04/26 08:34:09;;;;;;;13.03;10.70;;;17.30;79.80;;;;;;6109753;29;20480;-64
2022/04/26 08:37:12;;;;;;;9.97;9.07;;;17.10;80.40;;;;;;6108662;29;20475;-62
2022/04/26 08:40:16;;;;;;;11.43;10.40;;;17.10;80.90;;;;;;6108617;29;20485;-63
2022/04/26 08:43:21;;;;;;;11.00;9.90;;;17.50;80.80;;;;;;6107864;29;20493;-63
2022/04/26 08:50:59;;;;;;;11.57;9.80;;;18.00;78.20;;;;;;6108099;29;20540;-62
2022/04/26 08:53:10;;;;;;;10.83;9.93;;;17.90;77.50;;;;;;6108410;29;20482;-63
2022/04/26 08:56:13;;;;;;;11.43;10.50;;;17.80;77.10;;;;;;6126582;29;20487;-63
2022/04/26 08:59:19;;;;;;;10.47;9.40;;;17.80;77.50;;;;;;6130738;29;20467;-62
2022/04/26 09:02:23;;;;;;;11.50;10.50;;;17.90;77.30;;;;;;6130985;29;20784;-63
2022/04/26 09:05:27;;;;;;;10.40;9.50;;;18.10;76.20;;;;;;6131740;29;20486;-62
2022/04/26 09:08:30;;;;;;;12.63;10.10;;;18.20;76.60;;;;;;6131141;29;20986;-61
2022/04/26 09:11:34;;;;;;;9.90;9.00;;;18.40;75.60;;;;;;6131692;29;20490;-61
2022/04/26 09:14:47;;;;;;;10.63;9.63;;;18.40;74.70;;;;;;6126329;29;20728;-61
2022/04/26 09:17:50;;;;;;;10.60;9.60;;;18.40;74.00;;;;;;6131163;29;20969;-62
2022/04/26 09:20:55;;;;;;;10.30;9.33;;;18.40;74.00;;;;;;6131184;29;20232;-62
2022/04/26 09:24:00;;;;;;;9.70;8.80;;;18.00;73.50;;;;;;6130763;29;20576;-63
2022/04/26 09:27:16;;;;;;;10.97;10.00;;;17.90;73.70;;;;;;6130406;29;20854;-63
2022/04/26 09:30:21;;;;;;;10.67;9.77;;;18.00;73.80;;;;;;6128296;29;20498;-64
2022/04/26 09:33:36;;;;;;;11.63;10.33;;;18.10;73.80;;;;;;6130172;29;20487;-64
2022/04/26 09:36:44;;;;;;;9.17;8.37;;;18.20;72.90;;;;;;6127621;29;20480;-64
2022/04/26 09:40:06;;;;;;;10.23;9.27;;;18.10;73.30;;;;;;6129721;29;20468;-63
2022/04/26 09:43:14;;;;;;;10.93;9.93;;;17.90;73.70;;;;;;6128493;29;20472;-64
2022/04/26 09:46:19;;;;;;;9.80;8.50;;;18.50;72.10;;;;;;6129998;29;20787;-65
2022/04/26 09:49:24;;;;;;;9.50;8.70;;;19.10;71.20;;;;;;6130245;29;20235;-65
2022/04/26 09:52:28;;;;;;;9.00;8.20;;;19.80;69.00;;;;;;6129626;29;20258;-65
2022/04/26 09:55:31;;;;;;;10.70;9.60;;;20.20;66.90;;;;;;6129735;28;20240;-66
2022/04/26 09:58:37;;;;;;;10.77;9.87;;;20.70;66.10;;;;;;6127789;29;20228;-63
2022/04/26 10:01:43;;;;;;;10.50;9.60;;;20.70;63.10;;;;;;6132348;29;20554;-62
2022/04/26 10:04:50;;;;;;;9.90;9.07;;;20.60;63.40;;;;;;6131420;29;20251;-61
2022/04/26 10:07:55;;;;;;;9.93;9.07;;;20.40;63.60;;;;;;6130105;28;20532;-63
2022/04/26 10:11:00;;;;;;;10.00;9.10;;;20.00;62.60;;;;;;6129987;29;20218;-62
2022/04/26 10:14:05;;;;;;;10.60;9.70;;;19.40;65.10;;;;;;6129883;29;20600;-62
2022/04/26 10:17:10;;;;;;;10.30;9.37;;;19.00;65.30;;;;;;6120951;29;20606;-62
2022/04/26 10:20:41;;;;;;;9.90;8.90;;;18.60;66.90;;;;;;6129971;29;20244;-62
2022/04/26 10:24:19;;;;;;;10.83;9.83;;;18.60;67.40;;;;;;6129675;29;20367;-62
2022/04/26 10:27:24;;;;;;;10.27;9.27;;;18.40;67.90;;;;;;6034524;29;20242;-62
2022/04/26 10:30:51;;;;;;;10.10;9.20;;;18.20;69.00;;;;;;6035076;29;20234;-62
2022/04/26 10:33:59;;;;;;;8.93;8.17;;;18.00;69.50;;;;;;6109517;29;20480;-62
2022/04/26 10:37:31;;;;;;;11.00;10.00;;;17.70;70.70;;;;;;6106799;29;20473;-62
2022/04/26 10:41:04;;;;;;;10.73;9.73;;;17.60;70.90;;;;;;6121424;29;20472;-62
2022/04/26 10:44:31;;;;;;;10.17;9.30;;;17.60;71.30;;;;;;6129565;29;20463;-62
2022/04/26 10:47:35;;;;;;;10.20;9.30;;;17.50;71.60;;;;;;6129307;29;20480;-62
2022/04/26 10:50:39;;;;;;;10.23;9.40;;;17.50;71.70;;;;;;6129142;29;20812;-62
2022/04/26 10:53:45;;;;;;;10.50;9.40;;;17.60;71.40;;;;;;6129426;29;20468;-63
2022/04/26 10:56:49;;;;;;;10.33;9.43;;;17.70;70.80;;;;;;6129187;29;20960;-64
2022/04/26 10:59:56;;;;;;;11.10;10.10;;;18.00;70.60;;;;;;6129062;29;20483;-64
2022/04/26 11:03:07;;;;;;;10.30;9.37;;;18.10;70.30;;;;;;6129138;29;20488;-64
2022/04/26 11:06:12;;;;;;;10.47;9.57;;;18.00;69.70;;;;;;6129117;29;20955;-64
2022/04/26 11:09:17;;;;;;;11.47;10.27;;;18.10;69.50;;;;;;6129081;29;20486;-63
2022/04/26 11:12:21;;;;;;;12.00;10.90;;;18.00;70.10;;;;;;6129237;29;20468;-64
2022/04/26 11:15:26;;;;;;;10.97;10.03;;;18.10;69.70;;;;;;6129060;28;20486;-64
2022/04/26 11:18:33;;;;;;;11.10;10.10;;;18.00;70.10;;;;;;6129021;29;20480;-66
2022/04/26 11:21:38;;;;;;;10.77;9.80;;;18.00;70.20;;;;;;6122144;29;20518;-64
2022/04/26 11:28:06;;;;;;;11.50;10.40;;;17.60;71.10;;;;;;6133524;29;20472;-64
2022/04/26 11:31:09;;;;;;;11.30;9.20;;;17.50;72.30;;;;;;6133485;29;20956;-64
2022/04/26 11:34:12;;;;;;;12.60;11.40;;;17.80;72.00;;;;;;6133137;29;20489;-64
2022/04/26 11:37:17;;;;;;;13.50;12.13;;;17.90;71.20;;;;;;6132749;29;21006;-65
2022/04/26 11:40:26;;;;;;;11.50;10.47;;;17.90;70.80;;;;;;6133172;29;20472;-63
2022/04/26 11:43:31;;;;;;;16.80;14.23;;;17.90;70.00;;;;;;6132987;29;20471;-63
2022/04/26 11:46:34;;;;;;;12.20;11.10;;;17.70;70.80;;;;;;6132313;29;20499;-62
2022/04/26 11:49:41;;;;;;;11.77;10.60;;;17.90;70.90;;;;;;6132191;29;20930;-62
2022/04/26 11:52:46;;;;;;;10.70;9.80;;;18.10;70.40;;;;;;6133193;29;20483;-63
2022/04/26 11:55:54;;;;;;;9.37;8.57;;;18.10;69.00;;;;;;6132281;29;20484;-63
2022/04/26 11:58:57;;;;;;;9.47;8.57;;;18.20;69.20;;;;;;6133330;29;20321;-62
2022/04/26 12:02:01;;;;;;;10.60;9.60;;;18.30;69.00;;;;;;6132521;29;20451;-64
2022/04/26 12:05:05;;;;;;;11.60;10.43;;;18.30;68.30;;;;;;6133038;29;20483;-63
2022/04/26 12:08:16;;;;;;;10.60;9.70;;;18.00;67.80;;;;;;6132272;29;20459;-63
2022/04/26 12:11:21;;;;;;;11.43;10.43;;;17.80;69.00;;;;;;6132566;29;20479;-64
2022/04/26 12:14:24;;;;;;;10.07;9.17;;;17.80;69.40;;;;;;6131824;29;20845;-63
2022/04/26 12:17:29;;;;;;;10.50;9.50;;;17.60;69.50;;;;;;6132963;29;20482;-63
2022/04/26 12:20:35;;;;;;;10.57;9.43;;;17.60;70.00;;;;;;6132446;29;20622;-63
2022/04/26 12:23:40;;;;;;;10.70;9.70;;;17.60;70.50;;;;;;6127857;29;20487;-63
2022/04/26 12:26:54;;;;;;;10.33;9.43;;;17.70;70.70;;;;;;6132465;29;20483;-63
2022/04/26 12:29:57;;;;;;;9.80;8.90;;;17.60;70.80;;;;;;6132010;29;20487;-63
2022/04/26 12:33:00;;;;;;;9.40;8.50;;;17.80;70.90;;;;;;6130726;29;20479;-63
2022/04/26 12:36:05;;;;;;;11.60;10.60;;;18.00;70.00;;;;;;6131905;29;20521;-63
2022/04/26 12:39:10;;;;;;;10.43;9.43;;;18.00;68.60;;;;;;6131908;29;20486;-62
2022/04/26 12:42:15;;;;;;;10.80;9.87;;;18.20;68.90;;;;;;6133006;29;20859;-64
2022/04/26 12:45:21;;;;;;;11.63;10.43;;;18.40;68.50;;;;;;6132250;29;20669;-64
2022/04/26 12:51:54;;;;;;;11.00;9.97;;;18.50;67.70;;;;;;6131515;29;20486;-63
2022/04/26 12:54:59;;;;;;;10.60;9.70;;;18.60;67.20;;;;;;6131199;29;20572;-63
2022/04/26 12:58:05;;;;;;;11.67;10.60;;;18.60;67.70;;;;;;6130966;29;20250;-63
2022/04/26 13:01:08;;;;;;;11.73;10.63;;;18.60;67.20;;;;;;6131257;29;20495;-63
2022/04/26 13:04:12;;;;;;;11.77;10.67;;;18.80;66.70;;;;;;6130972;29;20475;-63
2022/04/26 13:07:15;;;;;;;11.50;10.37;;;19.20;65.70;;;;;;6131071;29;20228;-64
2022/04/26 13:10:22;;;;;;;11.73;10.70;;;19.80;64.50;;;;;;6129396;29;20224;-65
2022/04/26 13:13:27;;;;;;;12.87;11.77;;;20.10;62.60;;;;;;6128829;29;20234;-65
2022/04/26 13:16:30;;;;;;;11.73;10.77;;;19.80;63.10;;;;;;6130776;29;20250;-65
2022/04/26 13:19:33;;;;;;;12.63;11.47;;;20.00;62.90;;;;;;6130837;29;20228;-65
2022/04/26 13:22:37;;;;;;;11.57;10.57;;;20.20;61.90;;;;;;6130646;29;20638;-65
2022/04/26 13:25:42;;;;;;;12.53;11.43;;;20.20;62.00;;;;;;6131008;29;20704;-65
2022/04/26 13:28:46;;;;;;;11.03;10.13;;;20.10;62.10;;;;;;6130915;29;20246;-65
2022/04/26 13:31:49;;;;;;;12.57;11.47;;;19.80;62.80;;;;;;6130311;29;20391;-65
2022/04/26 13:34:53;;;;;;;11.87;10.77;;;19.70;63.10;;;;;;6130713;29;20240;-65
2022/04/26 13:37:58;;;;;;;11.87;10.77;;;19.70;63.10;;;;;;6129914;29;20230;-64
2022/04/26 13:41:02;;;;;;;11.50;10.47;;;19.50;62.90;;;;;;6130600;29;20204;-65
2022/04/26 13:44:05;;;;;;;12.20;11.00;;;19.20;63.30;;;;;;6130301;29;20235;-63
2022/04/26 13:47:09;;;;;;;11.90;10.83;;;19.00;64.00;;;;;;6130174;29;20223;-65
2022/04/26 13:50:13;;;;;;;12.50;11.30;;;18.90;65.50;;;;;;6128603;29;20223;-64
2022/04/26 13:53:16;;;;;;;11.27;10.27;;;18.60;66.60;;;;;;6128583;29;20232;-63
2022/04/26 13:56:21;;;;;;;11.50;10.40;;;18.60;67.40;;;;;;6127489;29;20241;-64
2022/04/26 13:59:25;;;;;;;12.03;10.80;;;18.40;67.80;;;;;;6127751;29;20615;-63
2022/04/26 14:02:29;;;;;;;13.73;12.40;;;17.90;69.90;;;;;;6127477;29;20248;-63
2022/04/26 14:05:33;;;;;;;12.87;11.73;;;17.50;71.70;;;;;;6128028;29;20483;-64
2022/04/26 14:08:43;;;;;;;13.63;12.37;;;17.20;73.00;;;;;;6130354;29;20479;-64
2022/04/26 14:11:47;;;;;;;14.00;12.60;;;17.20;73.00;;;;;;6127956;29;20487;-64
2022/04/26 14:21:50;;;;;;;12.77;11.57;;;17.00;74.80;;;;;;6106044;29;20468;-64
2022/04/26 14:24:53;;;;;;;11.17;10.17;;;17.10;74.70;;;;;;6106350;29;20480;-65
2022/04/26 14:27:58;;;;;;;12.27;11.17;;;17.30;74.40;;;;;;6105510;29;20487;-64
2022/04/26 14:31:01;;;;;;;12.57;11.03;;;17.50;72.70;;;;;;6106211;29;20495;-64
2022/04/26 14:34:04;;;;;;;12.00;10.83;;;17.60;72.50;;;;;;6101425;29;20492;-65
2022/04/26 14:37:09;;;;;;;11.87;10.70;;;17.70;72.00;;;;;;6105560;29;20472;-64
2022/04/26 14:40:12;;;;;;;11.23;10.13;;;17.70;72.00;;;;;;6105366;29;20477;-63
2022/04/26 14:43:17;;;;;;;11.53;10.43;;;17.80;72.10;;;;;;6105673;29;20476;-63
2022/04/26 14:46:20;;;;;;;12.50;11.40;;;17.70;72.00;;;;;;6105233;29;20794;-63
2022/04/26 14:49:23;;;;;;;12.07;10.90;;;17.60;72.70;;;;;;6105462;29;20572;-64
2022/04/26 14:52:27;;;;;;;12.40;11.10;;;17.50;74.10;;;;;;6105589;29;20489;-64
2022/04/26 14:55:38;;;;;;;12.53;11.37;;;17.40;74.40;;;;;;6120292;29;20494;-64
2022/04/26 14:58:43;;;;;;;12.93;11.73;;;17.30;75.40;;;;;;6133994;29;20479;-63
2022/04/26 15:01:48;;;;;;;11.70;10.33;;;17.20;75.50;;;;;;6133983;29;20483;-63
2022/04/26 15:04:52;;;;;;;12.63;11.53;;;17.10;76.50;;;;;;6133818;29;20583;-64
2022/04/26 15:11:15;;;;;;;11.87;10.77;;;16.90;79.70;;;;;;6133450;29;20967;-64
2022/04/26 15:17:40;;;;;;;12.63;11.30;;;16.60;84.90;;;;;;6133672;29;20482;-63
2022/04/26 15:20:50;;;;;;;15.67;14.10;;;16.40;85.50;;;;;;6133852;29;20482;-63
2022/04/26 15:23:54;;;;;;;15.10;13.67;;;16.30;87.40;;;;;;6133542;29;20479;-64
2022/04/26 15:26:58;;;;;;;13.57;12.33;;;16.20;90.20;;;;;;6133622;29;20490;-64
2022/04/26 15:30:03;;;;;;;15.00;13.57;;;16.20;91.50;;;;;;6134723;29;20485;-63
2022/04/26 15:33:06;;;;;;;14.80;13.33;;;16.00;92.50;;;;;;6135386;29;20491;-64
2022/04/26 15:36:09;;;;;;;14.60;13.27;;;15.90;93.50;;;;;;6128635;29;20935;-63
2022/04/26 15:39:12;;;;;;;13.83;12.47;;;15.90;94.50;;;;;;6133770;29;20476;-63
2022/04/26 15:42:18;;;;;;;13.67;12.40;;;16.00;94.80;;;;;;6133250;29;20545;-63
2022/04/26 15:45:22;;;;;;;13.23;11.97;;;16.10;95.20;;;;;;6133187;29;20817;-63
2022/04/26 15:48:26;;;;;;;13.53;12.33;;;16.10;95.50;;;;;;6132657;29;20480;-64
2022/04/26 15:51:29;;;;;;;14.23;12.90;;;16.20;95.80;;;;;;6132781;29;20485;-63
2022/04/26 15:54:32;;;;;;;13.43;12.00;;;16.20;95.90;;;;;;6132287;29;20479;-64
2022/04/26 15:57:37;;;;;;;12.90;11.70;;;16.20;95.70;;;;;;6132492;29;20472;-63
2022/04/26 16:00:41;;;;;;;11.53;10.33;;;16.20;95.50;;;;;;6132200;29;20479;-64
2022/04/26 16:03:45;;;;;;;14.37;13.10;;;16.20;95.30;;;;;;6132536;29;20484;-64
2022/04/26 16:06:48;;;;;;;12.27;11.07;;;16.30;95.50;;;;;;6132423;29;20647;-62
2022/04/26 16:23:23;;;;;;;13.07;11.83;;;16.10;95.60;;;;;;6131797;29;20480;-64
2022/04/26 16:26:27;;;;;;;13.63;12.33;;;16.10;96.00;;;;;;6132689;29;20472;-64
2022/04/26 16:29:30;;;;;;;14.93;13.57;;;16.00;96.60;;;;;;6132152;29;20464;-64
2022/04/26 16:32:36;;;;;;;15.10;13.77;;;15.90;97.00;;;;;;6132224;29;20480;-63
2022/04/26 16:35:39;;;;;;;13.70;12.40;;;15.80;97.20;;;;;;6131875;29;20990;-65
2022/04/26 16:38:43;;;;;;;13.27;12.07;;;15.80;97.40;;;;;;6131865;29;20491;-65
2022/04/26 16:41:46;;;;;;;16.10;14.50;;;15.70;97.90;;;;;;6131585;29;20494;-62
2022/04/26 16:44:49;;;;;;;15.80;14.20;;;15.70;98.30;;;;;;6132074;29;20479;-64
2022/04/26 16:47:53;;;;;;;14.80;13.47;;;15.60;98.60;;;;;;6131441;29;20480;-63
2022/04/26 16:50:57;;;;;;;16.80;14.10;;;15.60;98.90;;;;;;6132047;29;20476;-64
2022/04/26 16:54:00;;;;;;;15.90;14.30;;;15.60;99.10;;;;;;6131404;29;20490;-66
2022/04/26 16:57:03;;;;;;;16.33;14.87;;;15.50;99.10;;;;;;6131557;29;20795;-66
2022/04/26 17:00:08;;;;;;;15.63;14.10;;;15.50;99.30;;;;;;6131622;29;20480;-66
2022/04/26 17:03:14;;;;;;;15.43;14.03;;;15.50;99.50;;;;;;6131298;29;20472;-64
2022/04/26 17:06:18;;;;;;;15.60;14.20;;;15.50;99.70;;;;;;6132061;29;20472;-69
2022/04/26 17:09:21;;;;;;;17.00;15.40;;;15.50;99.60;;;;;;6131234;29;20478;-64
2022/04/26 17:12:26;;;;;;;16.60;15.10;;;15.40;99.60;;;;;;6130907;29;20490;-66
2022/04/26 17:15:31;;;;;;;15.03;13.60;;;15.40;99.40;;;;;;6131345;29;20531;-66
2022/04/26 17:18:35;;;;;;;15.50;13.90;;;15.40;99.80;;;;;;6130746;29;20839;-64
2022/04/26 17:21:39;;;;;;;17.63;16.13;;;15.40;99.90;;;;;;6131255;29;20479;-63
2022/04/26 17:28:04;;;;;;;17.30;15.60;;;15.30;99.90;;;;;;6130585;29;20495;-63
2022/04/26 17:31:08;;;;;;;17.73;16.03;;;15.30;99.90;;;;;;6130745;29;20468;-67
2022/04/26 17:34:12;;;;;;;16.03;14.63;;;15.20;99.90;;;;;;6130677;29;20476;-66
2022/04/26 17:37:15;;;;;;;16.10;14.70;;;15.20;99.90;;;;;;6130637;29;20479;-62
2022/04/26 17:40:20;;;;;;;18.00;15.80;;;15.10;99.90;;;;;;6129870;29;20484;-63
2022/04/26 17:43:24;;;;;;;19.17;17.27;;;15.10;99.90;;;;;;6129419;29;20484;-66
2022/04/26 17:46:31;;;;;;;18.20;16.40;;;15.00;99.90;;;;;;6128833;29;20498;-64
2022/04/26 17:49:40;;;;;;;18.60;16.80;;;15.00;99.90;;;;;;6134493;29;20488;-66
2022/04/26 17:59:27;;;;;;;17.53;15.77;;;14.80;99.90;;;;;;6131882;29;20479;-66
2022/04/26 18:02:31;;;;;;;18.90;17.00;;;14.70;99.90;;;;;;6131690;28;20623;-66
2022/04/26 18:05:37;;;;;;;20.50;16.87;;;14.70;99.90;;;;;;6130846;29;20475;-66
2022/04/26 18:08:52;;;;;;;21.43;17.47;;;14.70;99.90;;;;;;6130368;29;20936;-66
2022/04/26 18:11:56;;;;;;;18.53;16.77;;;14.70;99.90;;;;;;6131552;29;20491;-67
2022/04/26 18:15:05;;;;;;;19.70;17.70;;;14.70;99.90;;;;;;6130578;29;20498;-66
2022/04/26 18:18:12;;;;;;;18.60;16.90;;;14.60;99.90;;;;;;6129538;29;20491;-66
2022/04/26 18:21:19;;;;;;;18.17;16.37;;;14.60;99.90;;;;;;6130520;29;20494;-66
2022/04/26 18:24:24;;;;;;;18.60;16.90;;;14.60;99.90;;;;;;6130028;29;21173;-66
2022/04/26 18:27:29;;;;;;;17.87;16.17;;;14.60;99.90;;;;;;6132779;29;20471;-65
2022/04/26 18:30:34;;;;;;;19.83;17.77;;;14.60;99.90;;;;;;6135312;29;20468;-64
2022/04/26 18:33:42;;;;;;;17.70;16.00;;;14.50;99.90;;;;;;6134687;29;20953;-65
2022/04/26 18:36:52;;;;;;;20.53;18.10;;;14.50;99.90;;;;;;6133997;29;20884;-62
2022/04/26 18:39:55;;;;;;;17.83;16.10;;;14.50;99.90;;;;;;6135748;29;20539;-63
2022/04/26 18:42:58;;;;;;;20.83;18.43;;;14.50;99.90;;;;;;6133104;29;20479;-63
2022/04/26 18:46:03;;;;;;;18.00;16.10;;;14.50;99.90;;;;;;6131505;29;20476;-62
2022/04/26 18:49:07;;;;;;;17.97;16.07;;;14.50;99.90;;;;;;6125742;29;20560;-62
2022/04/26 18:52:12;;;;;;;18.40;16.50;;;14.50;99.90;;;;;;6131181;29;20476;-62
2022/04/26 18:55:15;;;;;;;19.40;17.60;;;14.50;99.90;;;;;;6129521;29;20479;-61
2022/04/26 18:58:18;;;;;;;17.97;16.17;;;14.60;99.90;;;;;;6133839;29;20486;-62
2022/04/26 19:01:21;;;;;;;19.33;17.40;;;14.60;99.90;;;;;;6133692;29;20554;-63
2022/04/26 19:04:25;;;;;;;19.30;17.50;;;14.60;99.90;;;;;;6131129;29;20495;-64
2022/04/26 19:07:29;;;;;;;25.23;20.30;;;14.60;99.90;;;;;;6131083;29;20554;-62
2022/04/26 19:13:56;;;;;;;18.33;16.53;;;14.50;99.90;;;;;;6135726;29;20542;-62
2022/04/26 19:16:59;;;;;;;20.00;17.90;;;14.40;99.90;;;;;;6131170;29;20542;-66
2022/04/26 19:20:03;;;;;;;20.13;18.07;;;14.40;99.90;;;;;;6130534;29;20526;-66
2022/04/26 19:23:07;;;;;;;18.97;17.17;;;14.40;99.90;;;;;;6130120;29;20480;-66
2022/04/26 19:26:12;;;;;;;20.73;18.57;;;14.40;99.90;;;;;;6130128;29;20907;-65
2022/04/26 19:29:15;;;;;;;19.00;17.20;;;14.30;99.90;;;;;;6128812;29;20967;-66
2022/04/26 19:32:19;;;;;;;20.03;18.03;;;14.30;99.90;;;;;;6128509;29;20839;-66
2022/04/26 19:35:22;;;;;;;19.73;17.90;;;14.30;99.90;;;;;;6129180;29;20471;-66
2022/04/26 19:38:27;;;;;;;19.63;17.40;;;14.30;99.90;;;;;;6129120;29;20479;-66
2022/04/26 19:41:30;;;;;;;21.40;19.10;;;14.20;99.90;;;;;;6134746;29;20513;-65
2022/04/26 19:44:34;;;;;;;19.43;17.50;;;14.20;99.90;;;;;;6144716;29;21037;-65
2022/04/26 19:47:37;;;;;;;19.03;17.03;;;14.20;99.90;;;;;;6136345;29;20546;-66
2022/04/26 19:54:04;;;;;;;18.87;17.23;;;14.20;99.90;;;;;;6134058;29;21249;-65
2022/04/26 19:57:07;;;;;;;17.03;15.53;;;14.30;99.90;;;;;;6134048;29;20980;-64
2022/04/26 20:00:11;;;;;;;18.53;16.93;;;14.20;99.90;;;;;;6134010;29;20487;-62
2022/04/26 20:03:15;;;;;;;19.10;17.23;;;14.30;99.90;;;;;;6133541;29;20487;-62
2022/04/26 20:06:19;;;;;;;18.87;16.63;;;14.20;99.90;;;;;;6133584;29;20490;-62
2022/04/26 20:09:24;;;;;;;18.53;16.77;;;14.20;99.90;;;;;;6133679;29;20479;-62
2022/04/26 20:12:28;;;;;;;20.57;18.47;;;14.20;99.90;;;;;;6133306;29;20479;-62
2022/04/26 20:15:32;;;;;;;22.47;20.17;;;14.10;99.90;;;;;;6133050;29;20472;-64
2022/04/26 20:18:35;;;;;;;23.20;19.00;;;14.10;99.90;;;;;;6132607;29;20471;-64
2022/04/26 20:21:39;;;;;;;23.23;20.73;;;14.00;99.90;;;;;;6132215;29;20480;-64
2022/04/26 20:24:43;;;;;;;23.83;21.53;;;13.90;99.90;;;;;;6132774;29;20476;-63
2022/04/26 20:31:07;;;;;;;15.50;13.90;;;13.70;99.90;;;;;;6133228;29;20480;-64